Hunt, Texas
Current Conditions -  °F | °C
As of 4:15 PM on Saturday 25 Oct 2014 (Local Time) from KERV Reporting Station
Clear Clear  
Wind Chill: 29°   Ceiling: Unl
Heat Index: 29°   Visibility: 10mi
Dew Point: 13°   Wind: 6mph
Humidity: 37%   Direction: 140°SE
Pressure: 30.12"   Gusts: NA
Location:  30.07°N, 99.34°W
Report Text: KERV 252115Z AUTO 14005KT 10SM CLR 29/13 A3012 RMK AO2 T02910130
Loading
Personal Weather Stations






























Interactive Weather Map
Tropical Storm Tracking
New forecast layout! Learn more

10-Day Weather Forecast

Advertisements
Track Severe Weather on mobile